createdAt,value
2018-05-02T00:01:45.605Z,15.32
2018-05-02T00:04:16.315Z,15.35
2018-05-02T00:06:47.151Z,15.35
2018-05-02T00:09:18.154Z,15.38
2018-05-02T00:11:49.138Z,15.39
2018-05-02T00:14:19.752Z,15.38
2018-05-02T00:16:50.378Z,15.39
2018-05-02T00:19:21.266Z,15.40
2018-05-02T00:21:52.199Z,15.36
2018-05-02T00:24:23.238Z,15.32
2018-05-02T00:26:54.071Z,15.19
2018-05-02T00:29:25.180Z,15.18
2018-05-02T00:31:55.817Z,15.15
2018-05-02T00:34:26.531Z,15.16
2018-05-02T00:36:57.182Z,15.18
2018-05-02T00:39:28.236Z,15.21
2018-05-02T00:41:59.074Z,15.21
2018-05-02T00:44:30.214Z,15.12
2018-05-02T00:47:01.166Z,15.11
2018-05-02T00:49:31.153Z,14.89
2018-05-02T00:52:01.745Z,14.88
2018-05-02T00:54:32.735Z,14.82
2018-05-02T00:57:03.722Z,14.78
2018-05-02T00:59:34.706Z,14.73
2018-05-02T01:02:05.701Z,14.68
2018-05-02T01:04:36.673Z,14.50
2018-05-02T01:07:07.586Z,14.51
2018-05-02T01:09:38.855Z,14.53
2018-05-02T01:12:09.643Z,14.56
2018-05-02T01:14:40.629Z,14.55
2018-05-02T01:17:11.558Z,14.50
2018-05-02T01:19:43.537Z,14.56
2018-05-02T01:22:14.213Z,14.57
2018-05-02T01:24:45.194Z,14.60
2018-05-02T01:27:16.150Z,14.64
2018-05-02T01:29:47.154Z,14.67
2018-05-02T01:32:18.262Z,14.68
2018-05-02T01:34:49.145Z,14.69
2018-05-02T01:37:20.134Z,14.70
2018-05-02T01:39:51.179Z,14.72
2018-05-02T01:42:22.105Z,14.74
2018-05-02T01:44:53.594Z,14.75
2018-05-02T01:47:24.212Z,14.75
2018-05-02T01:49:55.203Z,14.70
2018-05-02T01:52:26.070Z,14.72
2018-05-02T01:54:57.182Z,14.72
2018-05-02T01:57:28.066Z,14.72
2018-05-02T01:59:59.498Z,14.70
2018-05-02T02:02:30.169Z,14.70
2018-05-02T02:05:01.158Z,14.68
2018-05-02T02:07:32.061Z,14.66
2018-05-02T02:10:03.148Z,14.64
2018-05-02T02:12:34.126Z,14.62
2018-05-02T02:15:04.646Z,14.59
2018-05-02T02:17:35.342Z,14.58
2018-05-02T02:20:06.605Z,14.57
2018-05-02T02:22:37.283Z,14.55
2018-05-02T02:25:08.181Z,14.54
2018-05-02T02:27:38.671Z,14.52
2018-05-02T02:30:09.354Z,14.51
2018-05-02T02:32:39.691Z,14.48
2018-05-02T02:35:10.511Z,14.46
2018-05-02T02:37:41.139Z,14.44
2018-05-02T02:40:12.529Z,14.41
2018-05-02T02:42:42.394Z,14.37
2018-05-02T02:45:13.531Z,14.33
2018-05-02T02:47:44.146Z,14.28
2018-05-02T02:50:15.450Z,14.28
2018-05-02T02:52:45.471Z,14.27
2018-05-02T02:55:16.060Z,14.25
2018-05-02T02:57:47.094Z,14.23
2018-05-02T03:00:18.218Z,14.21
2018-05-02T03:02:49.087Z,14.21
2018-05-02T03:05:20.173Z,14.21
2018-05-02T03:07:51.187Z,14.20
2018-05-02T03:10:22.186Z,14.18
2018-05-02T03:12:53.152Z,14.16
2018-05-02T03:15:24.162Z,14.15
2018-05-02T03:17:55.559Z,14.13
2018-05-02T03:20:25.809Z,14.10
2018-05-02T03:22:56.449Z,14.08
2018-05-02T03:25:27.470Z,14.06
2018-05-02T03:27:58.187Z,14.03
2018-05-02T03:30:29.183Z,14.02
2018-05-02T03:33:00.197Z,14.01
2018-05-02T03:35:31.167Z,14.00
2018-05-02T03:38:02.005Z,13.97
2018-05-02T03:40:33.375Z,13.98
2018-05-02T03:43:04.145Z,13.97
2018-05-02T03:45:35.118Z,13.96
2018-05-02T03:48:06.228Z,13.95
2018-05-02T03:50:37.258Z,13.93
2018-05-02T03:53:08.121Z,13.92
2018-05-02T03:55:39.239Z,13.93
2018-05-02T03:58:10.178Z,13.93
2018-05-02T04:00:51.490Z,13.92
2018-05-02T04:03:31.333Z,13.91
2018-05-02T04:06:12.999Z,13.91
2018-05-02T04:08:41.841Z,13.90
2018-05-02T04:11:10.890Z,13.89
2018-05-02T04:13:39.709Z,13.88
2018-05-02T04:16:08.752Z,13.88
2018-05-02T04:18:37.781Z,13.88
2018-05-02T04:21:07.210Z,13.88
2018-05-02T04:23:36.159Z,13.88
2018-05-02T04:26:05.578Z,13.89
2018-05-02T04:28:34.707Z,13.88
2018-05-02T04:31:04.194Z,13.88
2018-05-02T04:33:33.215Z,13.88
2018-05-02T04:36:02.190Z,13.91
2018-05-02T04:38:31.153Z,13.90
2018-05-02T04:41:00.637Z,13.87
2018-05-02T04:43:29.765Z,13.94
2018-05-02T04:45:58.688Z,13.95
2018-05-02T04:48:27.607Z,13.97
2018-05-02T04:50:57.793Z,13.99
2018-05-02T04:53:29.081Z,14.01
2018-05-02T04:55:59.642Z,14.02
2018-05-02T04:58:30.351Z,14.03
2018-05-02T05:01:01.103Z,14.05
2018-05-02T05:03:32.178Z,14.05
2018-05-02T05:06:03.285Z,14.11
2018-05-02T05:08:34.422Z,14.14
2018-05-02T05:11:05.189Z,14.10
2018-05-02T05:13:36.205Z,14.17
2018-05-02T05:16:07.325Z,14.15
2018-05-02T05:18:38.141Z,14.16
2018-05-02T05:21:09.754Z,14.20
2018-05-02T05:23:40.443Z,14.20
2018-05-02T05:26:10.827Z,14.20
2018-05-02T05:28:41.547Z,14.19
2018-05-02T05:31:11.354Z,14.15
2018-05-02T05:33:42.294Z,14.12
2018-05-02T05:36:12.452Z,14.05
2018-05-02T05:38:44.218Z,14.13
2018-05-02T05:41:15.210Z,14.13
2018-05-02T05:43:46.176Z,14.08
2018-05-02T05:46:16.785Z,14.16
2018-05-02T05:48:47.421Z,14.25
2018-05-02T05:51:18.105Z,14.28
2018-05-02T05:53:48.626Z,14.30
2018-05-02T05:56:19.555Z,14.32
2018-05-02T05:58:50.185Z,14.35
2018-05-02T06:01:21.181Z,14.45
2018-05-02T06:03:51.665Z,14.51
2018-05-02T06:06:22.344Z,14.72
2018-05-02T06:08:53.133Z,14.63
2018-05-02T06:11:23.974Z,14.67
2018-05-02T06:13:55.402Z,14.60
2018-05-02T06:16:26.234Z,14.60
2018-05-02T06:18:57.094Z,14.69
2018-05-02T06:21:28.210Z,14.75
2018-05-02T06:23:59.158Z,14.72
2018-05-02T06:26:30.158Z,14.74
2018-05-02T06:29:01.260Z,14.76
2018-05-02T06:31:31.867Z,14.82
2018-05-02T06:34:02.525Z,14.88
2018-05-02T06:36:33.477Z,15.05
2018-05-02T06:39:03.472Z,15.05
2018-05-02T06:41:34.154Z,14.99
2018-05-02T06:44:05.154Z,14.98
2018-05-02T06:46:36.203Z,15.02
2018-05-02T06:49:07.242Z,15.07
2018-05-02T06:51:38.149Z,15.12
2018-05-02T06:54:09.863Z,15.16
2018-05-02T06:56:40.513Z,15.22
2018-05-02T06:59:11.343Z,15.27
2018-05-02T07:01:42.206Z,15.37
2018-05-02T07:04:12.989Z,15.30
2018-05-02T07:06:44.623Z,15.43
2018-05-02T07:09:15.349Z,15.41
2018-05-02T07:11:46.174Z,15.34
2018-05-02T07:14:17.174Z,15.34
2018-05-02T07:16:48.167Z,15.26
2018-05-02T07:19:19.231Z,15.33
2018-05-02T07:21:49.731Z,15.35
2018-05-02T07:24:20.427Z,15.61
2018-05-02T07:26:51.141Z,15.69
2018-05-02T07:29:22.266Z,15.82
2018-05-02T07:31:52.934Z,16.02
2018-05-02T07:34:23.958Z,16.06
2018-05-02T07:36:54.539Z,16.16
2018-05-02T07:39:25.531Z,16.17
2018-05-02T07:41:56.247Z,16.23
2018-05-02T07:44:26.975Z,16.26
2018-05-02T07:46:58.428Z,16.23
2018-05-02T07:49:28.925Z,16.21
2018-05-02T07:52:00.415Z,16.26
2018-05-02T07:54:30.598Z,16.34
2018-05-02T07:57:00.694Z,16.29
2018-05-02T07:59:31.884Z,16.21
2018-05-02T08:02:02.500Z,16.12
2018-05-02T08:04:33.302Z,16.18
2018-05-02T08:07:04.139Z,16.17
2018-05-02T08:09:35.243Z,16.24
2018-05-02T08:12:06.125Z,16.33
2018-05-02T08:14:37.248Z,16.33
2018-05-02T08:17:07.777Z,16.41
2018-05-02T08:19:38.501Z,16.30
2018-05-02T08:22:08.888Z,16.19
2018-05-02T08:24:40.509Z,16.19
2018-05-02T08:27:11.471Z,16.23
2018-05-02T08:29:41.535Z,16.19
2018-05-02T08:32:12.224Z,16.28
2018-05-02T08:34:43.223Z,16.27
2018-05-02T08:37:14.201Z,16.25
2018-05-02T08:39:45.230Z,16.39
2018-05-02T08:42:16.200Z,16.31
2018-05-02T08:44:46.774Z,16.37
2018-05-02T08:47:17.445Z,16.39
2018-05-02T08:49:48.540Z,16.41
2018-05-02T08:52:19.191Z,16.55
2018-05-02T08:54:50.228Z,16.56
2018-05-02T08:57:21.160Z,16.51
2018-05-02T08:59:52.224Z,16.60
2018-05-02T09:02:23.102Z,16.58
2018-05-02T09:04:54.186Z,16.67
2018-05-02T09:07:25.200Z,16.82
2018-05-02T09:09:56.197Z,17.01
2018-05-02T09:12:27.173Z,16.93
2018-05-02T09:14:58.485Z,16.98
2018-05-02T09:17:29.159Z,16.91
2018-05-02T09:20:00.301Z,16.98
2018-05-02T09:22:30.781Z,16.97
2018-05-02T09:25:01.534Z,17.01
2018-05-02T09:27:32.566Z,17.05
2018-05-02T09:30:03.299Z,17.16
2018-05-02T09:32:34.133Z,16.98
2018-05-02T09:35:05.243Z,17.05
2018-05-02T09:37:36.182Z,17.13
2018-05-02T09:40:07.474Z,17.17
2018-05-02T09:42:38.141Z,17.26
2018-05-02T09:45:09.282Z,17.41
2018-05-02T09:47:40.178Z,17.45
2018-05-02T09:50:11.281Z,17.50
2018-05-02T09:52:42.154Z,17.57
2018-05-02T09:55:13.549Z,17.67
2018-05-02T09:57:43.533Z,17.71
2018-05-02T10:00:14.312Z,17.78
2018-05-02T10:02:45.200Z,17.88
2018-05-02T10:05:15.758Z,17.81
2018-05-02T10:07:46.448Z,17.97
2018-05-02T10:10:16.864Z,18.37
2018-05-02T10:12:47.504Z,18.63
2018-05-02T10:15:18.483Z,18.90
2018-05-02T10:17:49.222Z,19.03
2018-05-02T10:20:20.213Z,18.92
2018-05-02T10:22:51.189Z,18.85
2018-05-02T10:25:22.259Z,18.94
2018-05-02T10:27:53.321Z,19.17
2018-05-02T10:30:23.905Z,19.26
2018-05-02T10:32:54.365Z,19.38
2018-05-02T10:35:25.259Z,19.66
2018-05-02T10:37:56.128Z,19.92
2018-05-02T10:40:27.299Z,20.06
2018-05-02T10:42:57.786Z,20.28
2018-05-02T10:45:28.527Z,20.31
2018-05-02T10:47:59.245Z,20.43
2018-05-02T10:50:29.894Z,20.39
2018-05-02T10:53:00.536Z,20.34
2018-05-02T10:55:31.302Z,20.30
2018-05-02T10:58:02.139Z,20.24
2018-05-02T11:00:33.239Z,20.17
2018-05-02T11:03:04.143Z,20.15
2018-05-02T11:05:35.258Z,20.18
2018-05-02T11:08:06.282Z,20.12
2018-05-02T11:10:37.545Z,20.10
2018-05-02T11:13:08.914Z,20.15
2018-05-02T11:15:39.562Z,20.33
2018-05-02T11:18:10.240Z,20.43
2018-05-02T11:20:41.223Z,20.44
2018-05-02T11:23:12.192Z,20.46
2018-05-02T11:25:43.284Z,20.62
2018-05-02T11:28:14.494Z,20.56
2018-05-02T11:30:45.269Z,20.56
2018-05-02T11:33:16.154Z,20.71
2018-05-02T11:35:47.272Z,20.53
2018-05-02T11:38:18.183Z,20.58
2018-05-02T11:40:49.234Z,20.62
2018-05-02T11:43:20.244Z,20.62
2018-05-02T11:45:51.272Z,20.55
2018-05-02T11:48:21.712Z,20.65
2018-05-02T11:50:52.485Z,20.76
2018-05-02T11:53:23.177Z,20.88
2018-05-02T11:55:54.362Z,20.91
2018-05-02T11:58:25.186Z,20.95
2018-05-02T12:00:56.262Z,20.95
2018-05-02T12:03:26.909Z,21.04
2018-05-02T12:05:57.810Z,21.01
2018-05-02T12:08:28.483Z,21.15
2018-05-02T12:10:59.262Z,21.16
2018-05-02T12:13:30.210Z,21.17
2018-05-02T12:16:01.357Z,21.25
2018-05-02T12:18:31.854Z,21.34
2018-05-02T12:21:02.977Z,21.52
2018-05-02T12:23:33.683Z,21.63
2018-05-02T12:26:04.682Z,21.79
2018-05-02T12:28:35.394Z,21.80
2018-05-02T12:31:05.929Z,21.84
2018-05-02T12:33:37.247Z,21.51
2018-05-02T12:36:07.984Z,22.03
2018-05-02T12:38:38.760Z,21.99
2018-05-02T12:41:09.518Z,22.14
2018-05-02T12:43:40.254Z,22.09
2018-05-02T12:46:11.273Z,22.18
2018-05-02T12:48:42.251Z,22.38
2018-05-02T12:51:13.510Z,22.29
2018-05-02T12:53:44.210Z,22.51
2018-05-02T12:56:14.958Z,22.64
2018-05-02T12:58:45.754Z,22.77
2018-05-02T13:01:16.737Z,22.78
2018-05-02T13:03:47.464Z,22.80
2018-05-02T13:06:18.511Z,22.91
2018-05-02T13:08:49.243Z,22.93
2018-05-02T13:11:20.173Z,23.11
2018-05-02T13:13:51.164Z,23.13
2018-05-02T13:16:22.178Z,23.31
2018-05-02T13:18:52.749Z,23.49
2018-05-02T13:21:23.743Z,23.45
2018-05-02T13:23:54.422Z,23.54
2018-05-02T13:26:25.283Z,23.76
2018-05-02T13:28:56.534Z,23.88
2018-05-02T13:31:28.315Z,23.94
2018-05-02T13:33:57.725Z,24.21
2018-05-02T13:36:28.467Z,24.35
2018-05-02T13:38:59.212Z,24.65
2018-05-02T13:41:30.259Z,24.74
2018-05-02T13:44:00.746Z,24.82
2018-05-02T13:46:32.588Z,24.95
2018-05-02T13:49:05.584Z,24.85
2018-05-02T13:51:34.614Z,24.95
2018-05-02T13:54:05.308Z,25.12
2018-05-02T13:56:36.241Z,25.06
2018-05-02T13:59:06.780Z,25.05
2018-05-02T14:01:37.540Z,24.98
2018-05-02T14:04:08.305Z,25.10
2018-05-02T14:06:39.762Z,25.22
2018-05-02T14:09:10.557Z,25.44
2018-05-02T14:11:40.504Z,25.44
2018-05-02T14:14:11.494Z,25.25
2018-05-02T14:16:42.457Z,25.20
2018-05-02T14:19:13.230Z,25.00
2018-05-02T14:21:44.211Z,24.85
2018-05-02T14:24:15.258Z,25.04
2018-05-02T14:26:46.697Z,25.14
2018-05-02T14:29:17.463Z,25.24
2018-05-02T14:31:49.001Z,25.53
2018-05-02T14:34:19.730Z,25.57
2018-05-02T14:36:50.447Z,25.62
2018-05-02T14:39:21.270Z,25.62
2018-05-02T14:41:52.158Z,25.61
2018-05-02T14:44:23.022Z,25.76
2018-05-02T14:46:54.164Z,25.90
2018-05-02T14:49:25.467Z,26.00
2018-05-02T14:51:56.604Z,25.57
2018-05-02T14:54:27.367Z,25.66
2018-05-02T14:56:58.284Z,25.85
2018-05-02T14:59:28.770Z,25.72
2018-05-02T15:01:59.472Z,25.82
2018-05-02T15:04:31.080Z,25.75
2018-05-02T15:07:02.715Z,25.91
2018-05-02T15:09:32.793Z,25.75
2018-05-02T15:12:04.549Z,25.52
2018-05-02T15:14:34.801Z,25.65
2018-05-02T15:17:04.894Z,25.49
2018-05-02T15:19:36.580Z,25.59
2018-05-02T15:22:06.560Z,25.80
2018-05-02T15:24:37.935Z,25.86
2018-05-02T15:27:08.578Z,25.66
2018-05-02T15:29:39.330Z,25.68
2018-05-02T15:32:10.998Z,25.62
2018-05-02T15:34:41.725Z,25.64
2018-05-02T15:37:12.425Z,25.43
2018-05-02T15:39:43.271Z,25.55
2018-05-02T15:42:14.195Z,25.51
2018-05-02T15:44:44.811Z,25.37
2018-05-02T15:47:15.466Z,25.09
2018-05-02T15:49:46.289Z,25.21
2018-05-02T15:52:17.663Z,25.21
2018-05-02T15:54:48.447Z,25.20
2018-05-02T15:57:19.962Z,25.22
2018-05-02T15:59:50.746Z,25.17
2018-05-02T16:02:21.766Z,25.37
2018-05-02T16:04:52.534Z,25.24
2018-05-02T16:07:23.346Z,25.07
2018-05-02T16:09:54.433Z,25.14
2018-05-02T16:12:25.723Z,25.21
2018-05-02T16:14:56.502Z,25.20
2018-05-02T16:17:27.391Z,25.34
2018-05-02T16:19:58.654Z,25.37
2018-05-02T16:22:29.770Z,25.38
2018-05-02T16:25:00.586Z,25.29
2018-05-02T16:27:31.482Z,25.45
2018-05-02T16:30:02.907Z,25.40
2018-05-02T16:32:33.752Z,25.44
2018-05-02T16:35:03.825Z,25.46
2018-05-02T16:37:34.655Z,25.47
2018-05-02T16:40:05.433Z,25.34
2018-05-02T16:42:37.428Z,25.26
2018-05-02T16:45:08.061Z,25.20
2018-05-02T16:47:40.024Z,25.18
2018-05-02T16:50:09.779Z,25.09
2018-05-02T16:52:40.829Z,25.16
2018-05-02T16:55:10.825Z,25.07
2018-05-02T16:57:42.426Z,24.94
2018-05-02T17:00:12.823Z,24.87
2018-05-02T17:02:43.579Z,24.84
2018-05-02T17:05:14.773Z,24.86
2018-05-02T17:07:45.534Z,24.68
2018-05-02T17:10:16.227Z,24.68
2018-05-02T17:12:47.321Z,24.78
2018-05-02T17:15:18.661Z,24.67
2018-05-02T17:17:49.454Z,24.52
2018-05-02T17:20:20.250Z,24.55
2018-05-02T17:22:51.283Z,24.53
2018-05-02T17:25:22.194Z,24.51
2018-05-02T17:27:53.307Z,24.49
2018-05-02T17:30:24.188Z,24.45
2018-05-02T17:32:54.872Z,24.45
2018-05-02T17:35:25.706Z,24.45
2018-05-02T17:37:56.543Z,24.46
2018-05-02T17:40:27.497Z,24.46
2018-05-02T17:42:58.339Z,24.43
2018-05-02T17:45:29.154Z,24.39
2018-05-02T17:48:00.352Z,24.37
2018-05-02T17:50:31.232Z,24.32
2018-05-02T17:53:02.713Z,24.27
2018-05-02T17:55:33.455Z,24.10
2018-05-02T17:58:04.368Z,24.07
2018-05-02T18:00:35.304Z,23.97
2018-05-02T18:03:06.273Z,23.86
2018-05-02T18:05:36.924Z,23.69
2018-05-02T18:08:07.782Z,23.73
2018-05-02T18:10:38.606Z,23.71
2018-05-02T18:13:09.393Z,23.59
2018-05-02T18:15:40.195Z,23.42
2018-05-02T18:18:11.265Z,23.46
2018-05-02T18:20:47.699Z,23.44
2018-05-02T18:23:16.934Z,23.36
2018-05-02T18:25:46.338Z,23.37
2018-05-02T18:28:15.758Z,23.39
2018-05-02T18:30:46.788Z,23.41
2018-05-02T18:33:17.520Z,23.42
2018-05-02T18:35:48.346Z,23.41
2018-05-02T18:38:18.975Z,23.36
2018-05-02T18:40:49.574Z,23.34
2018-05-02T18:43:20.444Z,23.31
2018-05-02T18:45:51.564Z,23.26
2018-05-02T18:48:22.310Z,23.22
2018-05-02T18:50:53.183Z,23.17
2018-05-02T18:53:24.242Z,23.11
2018-05-02T18:55:55.331Z,23.07
2018-05-02T18:58:26.363Z,23.05
2018-05-02T19:00:57.600Z,23.03
2018-05-02T19:03:28.389Z,23.01
2018-05-02T19:05:59.022Z,22.95
2018-05-02T19:08:29.672Z,22.89
2018-05-02T19:11:00.850Z,22.89
2018-05-02T19:13:31.443Z,22.87
2018-05-02T19:16:02.399Z,22.84
2018-05-02T19:18:38.055Z,22.83
2018-05-02T19:21:07.456Z,22.79
2018-05-02T19:23:36.877Z,22.72
2018-05-02T19:26:11.677Z,22.57
2018-05-02T19:28:40.715Z,22.41
2018-05-02T19:31:15.527Z,22.39
2018-05-02T19:33:49.911Z,22.28
2018-05-02T19:36:19.542Z,22.37
2018-05-02T19:38:48.554Z,22.10
2018-05-02T19:41:22.958Z,22.01
2018-05-02T19:43:57.240Z,21.96
2018-05-02T19:46:26.682Z,21.83
2018-05-02T19:48:55.955Z,21.80
2018-05-02T19:51:30.421Z,21.93
2018-05-02T19:53:59.658Z,21.85
2018-05-02T19:56:28.806Z,21.89
2018-05-02T19:58:57.826Z,21.92
2018-05-02T20:04:31.142Z,21.96
2018-05-02T20:06:59.978Z,21.99
2018-05-02T20:09:34.322Z,21.97
2018-05-02T20:12:08.688Z,21.96
2018-05-02T20:14:38.450Z,21.89
2018-05-02T20:17:07.698Z,21.83
2018-05-02T20:19:36.813Z,21.74
2018-05-02T20:22:12.033Z,21.73
2018-05-02T20:24:45.307Z,21.65
2018-05-02T20:27:14.617Z,21.65
2018-05-02T20:29:44.133Z,21.72
2018-05-02T20:32:13.197Z,21.70
2018-05-02T20:34:42.217Z,21.71
2018-05-02T20:37:11.163Z,21.69
2018-05-02T20:39:41.145Z,21.66
2018-05-02T20:42:10.151Z,21.67
2018-05-02T20:44:39.128Z,21.66
2018-05-02T20:47:08.092Z,21.65
2018-05-02T20:49:37.555Z,21.61
2018-05-02T20:52:06.813Z,21.65
2018-05-02T20:54:35.775Z,21.60
2018-05-02T20:57:04.999Z,21.57
2018-05-02T20:59:33.963Z,21.54
2018-05-02T21:02:02.952Z,21.57
2018-05-02T21:04:31.975Z,21.52
2018-05-02T21:07:00.969Z,21.44
2018-05-02T21:09:29.947Z,21.52
2018-05-02T21:11:58.989Z,21.39
2018-05-02T21:14:28.082Z,21.37
2018-05-02T21:16:57.233Z,21.29
2018-05-02T21:19:26.580Z,21.28
2018-05-02T21:21:55.524Z,21.22
2018-05-02T21:24:24.491Z,21.18
2018-05-02T21:26:53.534Z,21.13
2018-05-02T21:29:22.511Z,21.11
2018-05-02T21:31:51.766Z,21.14
2018-05-02T21:34:20.792Z,21.20
2018-05-02T21:36:49.760Z,21.11
2018-05-02T21:39:19.801Z,21.03
2018-05-02T21:41:49.826Z,20.94
2018-05-02T21:44:19.768Z,20.99
2018-05-02T21:46:50.564Z,20.95
2018-05-02T21:49:21.262Z,20.91
2018-05-02T21:51:52.314Z,20.84
2018-05-02T21:54:23.364Z,20.80
2018-05-02T21:56:54.672Z,20.63
2018-05-02T21:59:25.782Z,20.54
2018-05-02T22:01:56.494Z,20.42
2018-05-02T22:04:27.286Z,20.32
2018-05-02T22:06:58.232Z,20.28
2018-05-02T22:09:29.289Z,20.23
2018-05-02T22:12:00.218Z,20.19
2018-05-02T22:14:31.633Z,20.17
2018-05-02T22:17:02.329Z,20.10
2018-05-02T22:19:33.288Z,20.05
2018-05-02T22:22:04.193Z,20.01
2018-05-02T22:24:35.284Z,19.93
2018-05-02T22:27:06.160Z,19.88
2018-05-02T22:29:37.269Z,19.85
2018-05-02T22:32:08.728Z,19.79
2018-05-02T22:34:39.552Z,19.75
2018-05-02T22:37:10.266Z,19.72
2018-05-02T22:39:41.528Z,19.63
2018-05-02T22:42:12.222Z,19.62
2018-05-02T22:44:43.219Z,19.52
2018-05-02T22:47:14.229Z,19.50
2018-05-02T22:49:45.568Z,19.45
2018-05-02T22:52:16.320Z,19.43
2018-05-02T22:54:46.875Z,19.33
2018-05-02T22:57:17.593Z,19.34
2018-05-02T22:59:48.736Z,19.33
2018-05-02T23:02:18.706Z,19.30
2018-05-02T23:04:49.498Z,19.27
2018-05-02T23:07:20.230Z,19.23
2018-05-02T23:09:51.343Z,19.17
2018-05-02T23:12:22.169Z,19.17
2018-05-02T23:14:53.294Z,19.07
2018-05-02T23:17:24.146Z,18.95
2018-05-02T23:19:55.287Z,19.00
2018-05-02T23:22:26.273Z,18.97
2018-05-02T23:24:57.317Z,19.00
2018-05-02T23:27:28.154Z,18.96
2018-05-02T23:29:59.254Z,18.91
2018-05-02T23:32:29.824Z,18.88
2018-05-02T23:35:00.615Z,18.88
2018-05-02T23:37:31.331Z,18.88
2018-05-02T23:40:02.319Z,18.89
2018-05-02T23:42:33.184Z,18.90
2018-05-02T23:45:03.995Z,18.88
2018-05-02T23:47:35.454Z,18.88
2018-05-02T23:50:06.302Z,18.86
2018-05-02T23:52:36.825Z,18.83
2018-05-02T23:55:07.632Z,18.80
2018-05-02T23:57:38.363Z,18.77
